map of FAO home
FAO - Airport
Location
City:  Faro, Faro, Portugal
ICAO:LPFR
IATA:FAO

Details
Type:Airport (Aerodrome, Airfield)
Use:Public/Civil, International (customs port of entry)
Latitude:3700'52"N (37.014425)
Longitude:757'57"W (-7.965910)
Datum:WGS 1984
Elevation:24 ft (7 m)
Variation:1.93W (WMM2015 magnetic declination)
0.12 annual change
Runways:1
Longest:8169 × 148 ft (2490 × 45 m), paved

Time
Time Zone:UTC+0 (DST+1)
Local Time:

Weather
METAR:LPFR 121000Z 04003KT 320V080 CAVOK 12/02 Q1019
TAF:LPFR 120500Z 1206/1306 01010KT CAVOK
BECMG 1215/1217 34008KT
BECMG 1221/1223 VRB03KT
BECMG 1303/1305 04008KT

Related Locations
Nearby:
Farthest:NZRW: 12314 mi / 19818 km
Ruawai, NTL, NZ

Find:

   beyond  
but within

Other Information
Maps:
NOTAMs:
Links:
Sources:

  
flag of Portugal
flag of Faro
  

Sectional Chart

Flight Planning
at skyvector.com

Satellite Image

Google Maps Satellite view

 

Copyright © 2004-2017 Karl L. Swartz. All rights reserved.
The Great Circle Mapper name and logo are trademarks of the Great Circle Mapper.
All other trademarks mentioned herein belong to their respective owners.
Please see credits for attibutions and further copyright information.

  Follow gcmap on Facebook Follow gcmap on Twitter Follow gcmap on Google+ GCmap on LinkedIn

hCard Microformat

Geo Microformat